Time;durP1;ratioP1;P1;durP2;ratioP2;P2;SDS_P1;SDS_P2;PMS_P1;PMS_P2;Temp;Humidity;BMP_temperature;BMP_pressure;BME280_temperature;BME280_humidity;BME280_pressure;Samples;Min_cycle;Max_cycle;Signal;HPM_P1;HPM_P2
2024/02/07 00:00:38;;;;;;;16.63;10.10;;;;;;;;;;5051424;28;20207;-66
2024/02/07 00:03:05;;;;;;;16.03;10.57;;;;;;;;;;5011733;28;20582;-67
2024/02/07 00:05:32;;;;;;;16.43;10.53;;;2.30;99.90;;;;;;5012425;28;20265;-77
2024/02/07 00:07:59;;;;;;;17.40;10.10;;;2.70;99.90;;;;;;5012716;28;20205;-71
2024/02/07 00:10:26;;;;;;;16.30;11.10;;;2.20;99.90;;;;;;5012582;28;20584;-73
2024/02/07 00:12:53;;;;;;;13.37;10.37;;;2.10;99.90;;;;;;5032191;28;20207;-65
2024/02/07 00:15:20;;;;;;;14.83;11.17;;;2.20;99.90;;;;;;5051703;28;20716;-64
2024/02/07 00:17:49;;;;;;;33.10;14.83;;;2.10;99.90;;;;;;5051713;28;20223;-64
2024/02/07 00:20:16;;;;;;;16.10;10.03;;;2.00;99.90;;;;;;5051666;28;20207;-71
2024/02/07 00:22:43;;;;;;;13.53;9.37;;;;;;;;;;5050440;28;20199;-71
2024/02/07 00:25:10;;;;;;;17.07;11.67;;;1.90;99.90;;;;;;5051732;28;20223;-72
2024/02/07 00:27:37;;;;;;;18.60;11.20;;;1.90;99.90;;;;;;5051814;28;20618;-71
2024/02/07 00:30:05;;;;;;;22.63;11.77;;;2.20;99.90;;;;;;5051715;28;20207;-71
2024/02/07 00:32:32;;;;;;;16.67;11.90;;;1.60;99.90;;;;;;5049960;28;20200;-70
2024/02/07 00:35:00;;;;;;;22.37;12.50;;;1.60;99.90;;;;;;5050789;28;20276;-71
2024/02/07 00:37:27;;;;;;;20.40;12.53;;;1.50;99.90;;;;;;5051962;28;20223;-66
2024/02/07 00:39:54;;;;;;;16.67;11.67;;;1.50;99.90;;;;;;5046925;28;20672;-62
2024/02/07 00:42:21;;;;;;;13.30;11.07;;;1.70;99.90;;;;;;5036035;28;20248;-63
2024/02/07 00:44:48;;;;;;;20.47;11.27;;;1.70;99.90;;;;;;5041602;28;20242;-63
2024/02/07 00:47:15;;;;;;;30.67;12.10;;;1.60;99.90;;;;;;5026336;28;20575;-62
2024/02/07 00:49:42;;;;;;;16.53;10.30;;;1.50;99.90;;;;;;5040402;28;20702;-62
2024/02/07 00:52:11;;;;;;;19.27;11.47;;;;;;;;;;5038117;28;20754;-63
2024/02/07 00:54:37;;;;;;;19.37;12.07;;;1.50;99.90;;;;;;5042090;28;20310;-62
2024/02/07 00:57:05;;;;;;;19.40;11.90;;;1.40;99.90;;;;;;5039261;28;20224;-62
2024/02/07 00:59:32;;;;;;;21.63;13.10;;;1.50;99.90;;;;;;5028783;28;20203;-62
2024/02/07 01:01:59;;;;;;;19.83;11.90;;;1.40;99.90;;;;;;5035210;28;20208;-62
2024/02/07 01:04:25;;;;;;;15.57;11.40;;;1.40;99.90;;;;;;5033789;28;20224;-62
2024/02/07 01:06:52;;;;;;;15.37;11.77;;;1.30;99.90;;;;;;5035456;28;20246;-62
2024/02/07 01:09:21;;;;;;;18.20;11.13;;;1.50;99.90;;;;;;5035173;28;20215;-62
2024/02/07 01:11:48;;;;;;;22.27;12.67;;;1.60;99.90;;;;;;5040491;28;20238;-62
2024/02/07 01:14:15;;;;;;;15.90;11.37;;;1.60;99.90;;;;;;5034088;28;20227;-63
2024/02/07 01:16:42;;;;;;;17.10;11.07;;;1.50;99.90;;;;;;5034925;28;20793;-62
2024/02/07 01:19:09;;;;;;;18.30;11.23;;;1.70;99.90;;;;;;5040444;28;20256;-63
2024/02/07 01:21:36;;;;;;;18.43;11.63;;;;;;;;;;5042675;28;20284;-63
2024/02/07 01:24:06;;;;;;;17.17;10.07;;;1.60;99.90;;;;;;5034121;28;20204;-62
2024/02/07 01:26:37;;;;;;;18.77;11.33;;;;;;;;;;5035125;28;20668;-63
2024/02/07 01:29:05;;;;;;;18.23;11.33;;;;;;;;;;5045606;28;20727;-62
2024/02/07 01:31:32;;;;;;;19.40;12.10;;;;;;;;;;5055042;28;20617;-62
2024/02/07 01:34:00;;;;;;;17.93;11.73;;;;;;;;;;5053786;28;20679;-62
2024/02/07 01:36:27;;;;;;;14.47;10.23;;;1.60;99.90;;;;;;5054747;28;20714;-63
2024/02/07 01:38:55;;;;;;;18.77;11.90;;;1.60;99.90;;;;;;5054098;28;20749;-62
2024/02/07 01:41:22;;;;;;;16.73;11.07;;;1.70;99.90;;;;;;5054419;28;20213;-62
2024/02/07 01:43:51;;;;;;;16.37;11.63;;;1.70;99.90;;;;;;5051799;28;20243;-63
2024/02/07 01:46:18;;;;;;;18.23;10.77;;;1.70;99.90;;;;;;5054768;28;20258;-63
2024/02/07 01:48:45;;;;;;;21.23;10.53;;;1.70;99.90;;;;;;5052887;28;20284;-62
2024/02/07 01:51:13;;;;;;;17.47;11.10;;;1.70;99.90;;;;;;5055014;28;20207;-63
2024/02/07 01:53:41;;;;;;;15.83;10.80;;;1.80;99.90;;;;;;5053830;28;20203;-62
2024/02/07 01:56:10;;;;;;;15.40;10.27;;;1.70;99.90;;;;;;5054331;28;20255;-63
2024/02/07 01:58:37;;;;;;;18.13;10.67;;;1.70;99.90;;;;;;5054461;28;20721;-63
2024/02/07 02:01:07;;;;;;;14.50;10.23;;;1.80;99.90;;;;;;5054421;28;20285;-63
2024/02/07 02:03:34;;;;;;;16.47;11.17;;;1.70;99.90;;;;;;5053975;28;20205;-62
2024/02/07 02:06:01;;;;;;;18.70;11.47;;;1.60;99.90;;;;;;5055130;28;20227;-62
2024/02/07 02:08:28;;;;;;;18.60;11.10;;;1.80;99.90;;;;;;5055900;28;20278;-63
2024/02/07 02:11:02;;;;;;;18.30;11.53;;;1.60;99.90;;;;;;5054053;28;20207;-63
2024/02/07 02:13:28;;;;;;;15.63;11.60;;;1.60;99.90;;;;;;5053584;28;20203;-63
2024/02/07 02:15:55;;;;;;;18.73;11.33;;;1.70;99.90;;;;;;5053956;28;20218;-63
2024/02/07 02:18:23;;;;;;;20.83;11.13;;;1.70;99.90;;;;;;5044493;28;20715;-63
2024/02/07 02:20:50;;;;;;;25.23;12.60;;;1.60;99.90;;;;;;5014031;28;20207;-63
2024/02/07 02:23:34;;;;;;;17.30;11.53;;;1.60;99.90;;;;;;5013144;28;20270;-62
2024/02/07 02:26:57;;;;;;;16.30;10.77;;;1.60;99.90;;;;;;5014012;28;20229;-63
2024/02/07 02:29:32;;;;;;;19.40;12.37;;;1.70;99.90;;;;;;5014096;28;20207;-63
2024/02/07 02:31:59;;;;;;;22.20;12.83;;;1.60;99.90;;;;;;5014416;28;20247;-63
2024/02/07 02:34:28;;;;;;;18.20;12.37;;;1.70;99.90;;;;;;5013003;28;20234;-63
2024/02/07 02:36:55;;;;;;;18.00;12.00;;;1.70;99.90;;;;;;5019277;28;20343;-63
2024/02/07 02:39:28;;;;;;;16.60;10.93;;;1.70;99.90;;;;;;5053614;28;20204;-63
2024/02/07 02:41:55;;;;;;;18.57;11.70;;;1.60;99.90;;;;;;5053455;28;20249;-64
2024/02/07 02:44:23;;;;;;;18.70;11.03;;;;;;;;;;5052607;28;20584;-63
2024/02/07 02:46:51;;;;;;;19.47;11.50;;;;;;;;;;5056470;28;20225;-63
2024/02/07 02:49:19;;;;;;;13.83;9.73;;;1.50;99.90;;;;;;5053434;28;20203;-63
2024/02/07 02:51:46;;;;;;;19.57;12.07;;;1.50;99.90;;;;;;5053421;28;20251;-63
2024/02/07 02:54:15;;;;;;;13.90;10.57;;;1.50;99.90;;;;;;5052280;28;20250;-62
2024/02/07 02:56:42;;;;;;;15.53;10.73;;;1.50;99.90;;;;;;5052637;28;20290;-63
2024/02/07 02:59:09;;;;;;;13.97;10.43;;;1.30;99.90;;;;;;5053337;28;20278;-63
2024/02/07 03:01:37;;;;;;;14.87;11.30;;;1.30;99.90;;;;;;5052872;28;20218;-63
2024/02/07 03:04:06;;;;;;;18.00;10.40;;;1.30;99.90;;;;;;5053811;28;20209;-63
2024/02/07 03:06:58;;;;;;;16.97;10.60;;;1.70;99.90;;;;;;5053192;28;20204;-63
2024/02/07 03:09:26;;;;;;;17.07;11.37;;;1.30;99.90;;;;;;5052938;28;20207;-63
2024/02/07 03:11:53;;;;;;;17.70;10.50;;;1.40;99.90;;;;;;5053201;28;20199;-63
2024/02/07 03:14:21;;;;;;;17.83;11.83;;;1.40;99.90;;;;;;5051909;28;20271;-63
2024/02/07 03:16:48;;;;;;;20.00;11.17;;;;;;;;;;5052147;28;20267;-63
2024/02/07 03:19:17;;;;;;;17.33;11.47;;;;;;;;;;5052660;28;20202;-63
2024/02/07 03:21:44;;;;;;;15.57;10.63;;;1.30;99.90;;;;;;5052930;28;20260;-63
2024/02/07 03:24:12;;;;;;;16.57;11.60;;;1.30;99.90;;;;;;5051918;28;20785;-63
2024/02/07 03:26:39;;;;;;;14.70;10.60;;;1.60;99.90;;;;;;5052856;28;20210;-63
2024/02/07 03:29:06;;;;;;;20.93;11.43;;;1.20;99.90;;;;;;5052302;28;20231;-63
2024/02/07 03:31:37;;;;;;;18.40;11.80;;;1.20;99.90;;;;;;5052745;28;20203;-63
2024/02/07 03:34:04;;;;;;;18.20;12.13;;;1.40;99.90;;;;;;5051900;28;20234;-63
2024/02/07 03:36:32;;;;;;;17.13;11.87;;;1.30;99.90;;;;;;5052573;28;20293;-63
2024/02/07 03:39:00;;;;;;;21.93;13.23;;;1.40;99.90;;;;;;5051866;28;20770;-63
2024/02/07 03:41:27;;;;;;;19.00;12.53;;;1.40;99.90;;;;;;5052404;28;20756;-63
2024/02/07 03:43:54;;;;;;;20.57;13.20;;;1.50;99.90;;;;;;5051734;28;20234;-63
2024/02/07 03:46:21;;;;;;;18.73;12.63;;;1.60;99.90;;;;;;5052403;28;20214;-63
2024/02/07 03:48:50;;;;;;;18.23;12.13;;;1.60;99.90;;;;;;5049773;28;20249;-63
2024/02/07 03:51:17;;;;;;;18.53;12.57;;;1.50;99.90;;;;;;5052312;28;20560;-63
2024/02/07 03:53:47;;;;;;;24.43;14.40;;;1.40;99.90;;;;;;5049525;28;20210;-63
2024/02/07 03:56:14;;;;;;;20.87;13.00;;;;;;;;;;5052228;28;20207;-63
2024/02/07 03:58:42;;;;;;;18.50;13.63;;;;;;;;;;5051391;28;20211;-63
2024/02/07 04:01:13;;;;;;;23.17;14.17;;;;;;;;;;5052075;28;20729;-63
2024/02/07 04:03:40;;;;;;;25.53;14.63;;;1.40;99.90;;;;;;5051078;28;20207;-63
2024/02/07 04:06:08;;;;;;;26.53;15.93;;;1.40;99.90;;;;;;5051995;28;20289;-63
2024/02/07 04:08:35;;;;;;;24.23;14.50;;;1.50;99.90;;;;;;5051367;28;20195;-63
2024/02/07 04:11:07;;;;;;;21.07;13.23;;;1.50;99.90;;;;;;5051934;28;20208;-63
2024/02/07 05:16:18;;;;;;;18.87;12.60;;;2.60;99.90;;;;;;5027432;28;20686;-62
2024/02/07 05:18:45;;;;;;;22.30;13.43;;;2.60;99.90;;;;;;5051128;28;20247;-62
2024/02/07 05:21:13;;;;;;;22.10;13.57;;;2.70;99.90;;;;;;5051382;28;20207;-62
2024/02/07 05:23:40;;;;;;;20.47;12.93;;;2.60;99.90;;;;;;5050506;28;20672;-62
2024/02/07 05:26:08;;;;;;;18.50;12.10;;;;;;;;;;5053449;28;20219;-62
2024/02/07 05:28:36;;;;;;;20.57;12.83;;;;;;;;;;5055107;28;20195;-62
2024/02/07 05:31:03;;;;;;;19.17;11.67;;;2.80;99.90;;;;;;5055196;28;20211;-62
2024/02/07 05:33:32;;;;;;;23.17;13.73;;;;;;;;;;5053636;28;20254;-62
2024/02/07 05:35:59;;;;;;;19.47;12.50;;;;;;;;;;5054481;28;20219;-63
2024/02/07 05:38:26;;;;;;;19.27;12.20;;;;;;;;;;5045382;28;20210;-62
2024/02/07 05:40:54;;;;;;;14.00;11.10;;;;;;;;;;5034785;28;20205;-62
2024/02/07 05:43:21;;;;;;;19.13;11.63;;;;;;;;;;5034500;28;20208;-62
2024/02/07 05:45:48;;;;;;;20.93;12.27;;;;;;;;;;5036994;28;20649;-62
2024/02/07 05:48:15;;;;;;;26.93;13.17;;;;;;;;;;5054767;28;20249;-62
2024/02/07 05:50:45;;;;;;;19.97;12.80;;;3.00;99.90;;;;;;5054820;28;20204;-62
2024/02/07 05:53:12;;;;;;;16.23;11.47;;;3.10;99.90;;;;;;5052398;28;20292;-62
2024/02/07 05:55:39;;;;;;;22.77;13.20;;;3.00;99.90;;;;;;5053212;28;20298;-62
2024/02/07 05:58:09;;;;;;;19.50;12.30;;;3.00;99.90;;;;;;5048826;28;20269;-62
2024/02/07 06:00:36;;;;;;;24.37;12.13;;;3.00;99.90;;;;;;5054322;28;20207;-62
2024/02/07 06:03:05;;;;;;;20.33;12.80;;;3.00;99.90;;;;;;5053211;28;20203;-62
2024/02/07 06:05:32;;;;;;;21.87;13.13;;;2.90;99.90;;;;;;5053546;28;20223;-61
2024/02/07 06:08:02;;;;;;;20.67;12.13;;;2.90;99.90;;;;;;5014444;28;20207;-61
2024/02/07 06:10:29;;;;;;;19.30;12.57;;;2.90;99.90;;;;;;5014560;28;20614;-62
2024/02/07 06:12:56;;;;;;;19.57;13.40;;;2.80;99.90;;;;;;5013513;28;20210;-62
2024/02/07 06:15:23;;;;;;;20.63;13.17;;;2.90;99.90;;;;;;5014187;28;20649;-62
2024/02/07 06:17:50;;;;;;;17.37;11.87;;;2.80;99.90;;;;;;5051795;28;20212;-62
2024/02/07 06:20:17;;;;;;;24.57;13.40;;;2.60;99.90;;;;;;5053958;28;20269;-62
2024/02/07 06:22:47;;;;;;;18.87;11.73;;;2.50;99.90;;;;;;5053059;28;20204;-62
2024/02/07 06:25:16;;;;;;;16.30;11.20;;;2.70;99.90;;;;;;5053664;28;20725;-63
2024/02/07 06:27:43;;;;;;;19.67;11.97;;;;;;;;;;5053724;28;20210;-62
2024/02/07 06:30:10;;;;;;;22.47;11.93;;;2.70;99.90;;;;;;5054459;28;20199;-62
2024/02/07 06:32:37;;;;;;;21.63;12.83;;;2.70;99.90;;;;;;5052810;28;20242;-62
2024/02/07 06:35:05;;;;;;;23.37;12.90;;;;;;;;;;5053448;28;20234;-62
2024/02/07 06:37:32;;;;;;;18.73;12.17;;;;;;;;;;5052552;28;20671;-62
2024/02/07 06:39:59;;;;;;;21.57;11.53;;;;;;;;;;5053758;28;20196;-62
2024/02/07 06:42:29;;;;;;;19.33;12.80;;;;;;;;;;5052868;28;20207;-62
2024/02/07 06:44:56;;;;;;;15.20;11.30;;;2.80;99.90;;;;;;5053412;28;20273;-62
2024/02/07 06:47:26;;;;;;;20.60;11.47;;;3.00;99.90;;;;;;5054674;28;20253;-62
2024/02/07 06:49:53;;;;;;;19.13;12.30;;;3.10;99.90;;;;;;5053358;28;20250;-62
2024/02/07 06:52:20;;;;;;;17.70;10.87;;;3.00;99.90;;;;;;5052707;28;20634;-62
2024/02/07 06:54:47;;;;;;;20.67;11.23;;;3.00;99.90;;;;;;5052937;28;20236;-62
2024/02/07 06:57:14;;;;;;;19.40;10.97;;;3.00;99.90;;;;;;5052435;28;20257;-62
2024/02/07 06:59:42;;;;;;;17.20;11.27;;;3.10;99.90;;;;;;5053155;28;20220;-62
2024/02/07 07:02:09;;;;;;;17.90;10.93;;;3.00;99.90;;;;;;5052255;28;20204;-62
2024/02/07 07:04:36;;;;;;;15.53;10.17;;;3.20;99.90;;;;;;5052905;28;20250;-62
2024/02/07 07:07:03;;;;;;;18.70;11.30;;;3.20;99.90;;;;;;5047468;28;20258;-62
2024/02/07 07:09:30;;;;;;;15.87;10.50;;;3.40;99.90;;;;;;5028226;28;20246;-61
2024/02/07 07:11:57;;;;;;;16.83;10.50;;;3.20;99.90;;;;;;5032685;28;20205;-62
2024/02/07 07:14:24;;;;;;;14.97;10.23;;;;;;;;;;5043157;28;20216;-62
2024/02/07 07:16:52;;;;;;;19.87;10.23;;;3.10;99.90;;;;;;5023595;28;20255;-62
2024/02/07 07:19:19;;;;;;;17.33;10.03;;;3.10;99.90;;;;;;5033474;28;20269;-62
2024/02/07 07:21:46;;;;;;;16.30;10.50;;;3.30;99.90;;;;;;5032746;28;20207;-62
2024/02/07 07:24:13;;;;;;;11.87;8.80;;;3.40;99.90;;;;;;5048577;28;20274;-61
2024/02/07 07:26:40;;;;;;;14.13;8.53;;;3.60;99.90;;;;;;5052733;28;20204;-64
2024/02/07 07:29:08;;;;;;;14.37;8.30;;;3.70;99.90;;;;;;5052446;28;20668;-61
2024/02/07 07:31:36;;;;;;;15.80;10.40;;;;;;;;;;5049687;28;20530;-62
2024/02/07 07:34:05;;;;;;;15.57;9.90;;;;;;;;;;5051019;28;20211;-60
2024/02/07 07:36:32;;;;;;;12.87;9.73;;;3.60;99.90;;;;;;5052321;28;20650;-60
2024/02/07 07:38:59;;;;;;;11.90;9.10;;;3.90;99.90;;;;;;5052279;28;20289;-62
2024/02/07 07:41:26;;;;;;;13.90;8.43;;;;;;;;;;5052311;28;20204;-63
2024/02/07 07:43:53;;;;;;;13.40;8.37;;;;;;;;;;5050703;28;20257;-62
2024/02/07 07:46:20;;;;;;;18.13;9.10;;;;;;;;;;5035029;28;20255;-65
2024/02/07 07:48:48;;;;;;;16.00;9.03;;;;;;;;;;5031898;28;20208;-68
2024/02/07 07:51:19;;;;;;;11.60;7.70;;;;;;;;;;5032411;28;20262;-61
2024/02/07 07:53:46;;;;;;;13.03;8.47;;;;;;;;;;5040695;28;20694;-58
2024/02/07 07:56:13;;;;;;;12.30;8.17;;;4.00;99.90;;;;;;5050109;28;20254;-58
2024/02/07 07:58:43;;;;;;;12.83;8.77;;;4.00;99.90;;;;;;5048153;28;20270;-58
2024/02/07 08:01:13;;;;;;;12.87;8.40;;;4.00;99.90;;;;;;5050568;28;20204;-58
2024/02/07 08:03:40;;;;;;;11.47;7.97;;;3.90;99.90;;;;;;5047305;28;20195;-58
2024/02/07 08:06:08;;;;;;;14.83;8.87;;;3.90;99.90;;;;;;5050577;28;20228;-58
2024/02/07 08:08:37;;;;;;;12.80;7.93;;;3.80;99.90;;;;;;5051120;28;20204;-58
2024/02/07 08:11:04;;;;;;;13.93;8.33;;;3.90;99.90;;;;;;5051774;28;20258;-59
2024/02/07 08:13:32;;;;;;;12.53;8.87;;;3.90;99.90;;;;;;5050536;28;20192;-58
2024/02/07 08:16:00;;;;;;;11.03;7.50;;;4.00;99.90;;;;;;5038414;28;20270;-59
2024/02/07 08:18:26;;;;;;;11.30;7.60;;;3.90;99.90;;;;;;5031854;28;20319;-58
2024/02/07 08:20:54;;;;;;;12.80;6.97;;;4.20;99.90;;;;;;5032343;28;20206;-59
2024/02/07 08:23:21;;;;;;;13.57;8.13;;;4.20;99.90;;;;;;5037942;28;20238;-58
2024/02/07 08:25:49;;;;;;;15.40;7.63;;;4.30;99.90;;;;;;5051670;28;20228;-58
2024/02/07 08:28:16;;;;;;;13.97;7.90;;;4.40;99.90;;;;;;5051658;28;20231;-58
2024/02/07 08:30:43;;;;;;;13.70;8.10;;;4.50;99.90;;;;;;5051593;28;20207;-58
2024/02/07 08:33:10;;;;;;;11.67;7.80;;;4.80;99.90;;;;;;5050499;28;20253;-59
2024/02/07 08:35:37;;;;;;;19.57;7.67;;;;;;;;;;5053366;28;20377;-59
2024/02/07 08:38:04;;;;;;;10.70;8.53;;;5.30;99.90;;;;;;5051704;28;20260;-59
2024/02/07 08:40:31;;;;;;;13.63;7.17;;;5.40;99.90;;;;;;5051373;28;20224;-59
2024/02/07 08:43:00;;;;;;;11.50;7.83;;;5.50;99.90;;;;;;5050340;28;20199;-58
2024/02/07 08:45:27;;;;;;;8.70;6.33;;;5.70;99.90;;;;;;5051351;28;20264;-58
2024/02/07 08:47:54;;;;;;;12.90;7.87;;;5.70;99.90;;;;;;5051547;28;20238;-58
2024/02/07 08:50:21;;;;;;;12.07;7.93;;;5.70;99.90;;;;;;5051495;28;20193;-58
2024/02/07 08:52:48;;;;;;;11.77;6.70;;;6.00;99.90;;;;;;5049847;28;20671;-59
2024/02/07 08:55:15;;;;;;;10.97;7.27;;;6.00;99.90;;;;;;5051471;28;20236;-59
2024/02/07 08:57:42;;;;;;;11.67;6.93;;;6.30;99.90;;;;;;5051597;28;20251;-58
2024/02/07 09:00:11;;;;;;;13.47;7.67;;;;;;;;;;5054514;28;20223;-58
2024/02/07 09:02:38;;;;;;;10.43;6.40;;;;;;;;;;5054050;28;20208;-58
2024/02/07 09:05:06;;;;;;;12.83;6.10;;;;;;;;;;5055189;28;20278;-58
2024/02/07 09:07:33;;;;;;;6.50;5.17;;;;;;;;;;5055505;28;20203;-59
2024/02/07 09:10:00;;;;;;;8.30;5.80;;;;;;;;;;5055114;28;20261;-59
2024/02/07 09:12:28;;;;;;;6.03;4.60;;;;;;;;;;5054648;28;20204;-58
2024/02/07 09:14:56;;;;;;;4.30;3.90;;;;;;;;;;5054389;28;20215;-58
2024/02/07 09:17:24;;;;;;;6.90;4.23;;;;;;;;;;5055240;28;20294;-58
2024/02/07 09:19:52;;;;;;;8.70;3.73;;;;;;;;;;5055473;28;20216;-58
2024/02/07 09:22:19;;;;;;;6.87;4.27;;;;;;;;;;5054946;28;20337;-58
2024/02/07 09:24:46;;;;;;;7.60;4.53;;;;;;;;;;5052910;28;20271;-58
2024/02/07 09:27:13;;;;;;;6.80;5.27;;;;;;;;;;5035432;28;20891;-58
2024/02/07 09:29:40;;;;;;;7.27;5.00;;;;;;;;;;5035087;28;20196;-58
2024/02/07 09:32:08;;;;;;;9.10;4.77;;;;;;;;;;5035095;28;20208;-59
2024/02/07 09:34:36;;;;;;;7.30;4.67;;;;;;;;;;5050383;28;20343;-58
2024/02/07 09:37:03;;;;;;;8.90;4.63;;;7.40;99.90;;;;;;5055396;28;20238;-58
2024/02/07 09:39:30;;;;;;;4.30;3.90;;;7.30;99.90;;;;;;5054712;28;20404;-59
2024/02/07 09:42:02;;;;;;;8.10;4.67;;;7.30;99.90;;;;;;5054531;28;20207;-58
2024/02/07 09:44:31;;;;;;;8.37;4.43;;;7.40;99.90;;;;;;5053145;28;20273;-58
2024/02/07 09:47:00;;;;;;;6.93;5.17;;;7.40;99.90;;;;;;5053082;28;20518;-60
2024/02/07 09:49:29;;;;;;;7.57;5.90;;;7.60;99.90;;;;;;5054025;28;20754;-63
2024/02/07 09:51:58;;;;;;;15.00;5.43;;;;;;;;;;5054245;28;20200;-57
2024/02/07 09:54:25;;;;;;;7.50;4.63;;;;;;;;;;5052575;28;20417;-58
2024/02/07 09:56:52;;;;;;;10.30;6.13;;;;;;;;;;5054170;28;20253;-57
2024/02/07 09:59:22;;;;;;;12.77;5.97;;;8.40;99.90;;;;;;5054152;28;20266;-58
2024/02/07 10:01:49;;;;;;;9.40;5.87;;;;;;;;;;5054197;28;20204;-57
2024/02/07 10:04:22;;;;;;;8.43;5.27;;;8.70;99.90;;;;;;5050358;28;20715;-58
2024/02/07 10:06:50;;;;;;;8.93;6.23;;;8.80;99.90;;;;;;5054081;28;20682;-57
2024/02/07 10:09:19;;;;;;;13.57;6.53;;;8.70;99.90;;;;;;5052015;28;20204;-57
2024/02/07 10:11:47;;;;;;;7.97;6.07;;;;;;;;;;5057136;28;20203;-59
2024/02/07 10:14:14;;;;;;;12.50;6.43;;;;;;;;;;5052287;28;20281;-57
2024/02/07 10:16:42;;;;;;;13.07;5.93;;;;;;;;;;5054046;28;20568;-59
2024/02/07 10:19:09;;;;;;;7.63;5.53;;;;;;;;;;5053856;28;20275;-57
2024/02/07 10:21:37;;;;;;;10.20;7.17;;;;;;;;;;5053846;28;20208;-57
2024/02/07 10:24:04;;;;;;;13.70;8.47;;;;;;;;;;5052214;28;20253;-58
2024/02/07 10:26:33;;;;;;;16.20;8.87;;;7.90;99.90;;;;;;5053596;28;20204;-57
2024/02/07 10:29:00;;;;;;;17.03;9.43;;;7.80;99.90;;;;;;5058638;28;20204;-58
2024/02/07 10:31:27;;;;;;;20.23;10.03;;;7.80;99.90;;;;;;5053610;28;20721;-64
2024/02/07 10:33:57;;;;;;;16.53;10.37;;;7.80;99.90;;;;;;5052007;28;20200;-58
2024/02/07 10:36:25;;;;;;;10.93;8.10;;;7.80;99.90;;;;;;5053672;28;20203;-57
2024/02/07 10:38:53;;;;;;;12.60;8.17;;;7.80;99.90;;;;;;5053187;28;20282;-57
2024/02/07 10:41:20;;;;;;;15.37;7.77;;;7.90;99.90;;;;;;5053322;28;20234;-57
2024/02/07 10:43:48;;;;;;;8.53;5.60;;;8.30;99.90;;;;;;5052236;28;20204;-58
2024/02/07 10:46:18;;;;;;;10.27;5.27;;;8.70;99.90;;;;;;5053511;28;20208;-58
2024/02/07 10:48:45;;;;;;;10.67;6.90;;;8.90;99.90;;;;;;5053452;28;20205;-58
2024/02/07 10:51:12;;;;;;;7.07;5.90;;;9.10;99.90;;;;;;5053236;28;20208;-58
2024/02/07 10:53:39;;;;;;;7.53;4.33;;;9.50;99.90;;;;;;5051749;28;20204;-58
2024/02/07 10:56:14;;;;;;;6.80;4.20;;;10.10;99.90;;;;;;5052963;28;20281;-59
2024/02/07 10:58:42;;;;;;;7.27;4.80;;;10.20;99.90;;;;;;5053400;28;20201;-65
2024/02/07 11:01:11;;;;;;;6.73;4.57;;;10.20;99.90;;;;;;5053215;28;20223;-64
2024/02/07 11:03:38;;;;;;;5.07;3.07;;;10.20;99.90;;;;;;5051522;28;20338;-65
2024/02/07 11:06:07;;;;;;;7.73;3.90;;;10.10;99.90;;;;;;5052844;28;20221;-68
2024/02/07 11:08:34;;;;;;;5.20;3.67;;;10.00;99.90;;;;;;5049541;28;20993;-61
2024/02/07 11:11:02;;;;;;;6.27;4.17;;;9.90;99.90;;;;;;5051285;28;20246;-61
2024/02/07 11:13:29;;;;;;;6.03;4.23;;;9.80;99.90;;;;;;5050848;28;20671;-61
2024/02/07 11:15:56;;;;;;;6.80;4.73;;;9.60;99.90;;;;;;5052469;28;20220;-61
2024/02/07 11:18:24;;;;;;;5.63;3.90;;;9.70;99.90;;;;;;5052299;28;20261;-61
2024/02/07 11:20:55;;;;;;;3.97;3.70;;;9.60;99.90;;;;;;5052133;28;20248;-61
2024/02/07 11:23:25;;;;;;;5.57;4.23;;;;;;;;;;5049965;28;20213;-61
2024/02/07 11:25:54;;;;;;;4.13;3.30;;;;;;;;;;5045746;28;20224;-61
2024/02/07 11:28:21;;;;;;;5.00;4.07;;;8.10;99.90;;;;;;5014471;28;20205;-61
2024/02/07 11:30:49;;;;;;;4.80;3.67;;;9.60;99.90;;;;;;5012900;28;20197;-62
2024/02/07 11:33:17;;;;;;;7.80;4.17;;;9.60;99.90;;;;;;5013896;28;20301;-61
2024/02/07 11:35:45;;;;;;;3.63;3.33;;;9.80;99.90;;;;;;5052686;28;20277;-61
2024/02/07 11:38:12;;;;;;;8.43;4.37;;;9.90;99.90;;;;;;5052712;28;20257;-61
2024/02/07 11:40:40;;;;;;;4.43;3.93;;;9.90;99.90;;;;;;5052330;28;20314;-61
2024/02/07 11:43:10;;;;;;;4.40;3.77;;;9.90;99.90;;;;;;5051632;28;20200;-61
2024/02/07 11:45:38;;;;;;;4.97;3.40;;;10.10;99.90;;;;;;5052126;28;20271;-61
2024/02/07 11:48:18;;;;;;;9.87;4.27;;;10.00;99.90;;;;;;5052459;28;20723;-61
2024/02/07 11:50:46;;;;;;;10.03;4.43;;;10.00;99.90;;;;;;5052315;28;20232;-62
2024/02/07 11:53:20;;;;;;;11.80;4.13;;;10.00;99.90;;;;;;5050722;28;20293;-61
2024/02/07 11:55:48;;;;;;;6.03;3.77;;;;;;;;;;5051959;28;20282;-62
2024/02/07 11:58:17;;;;;;;5.03;3.57;;;9.90;99.90;;;;;;5052139;28;20261;-61
2024/02/07 12:00:45;;;;;;;4.37;3.03;;;10.00;99.90;;;;;;5052399;28;20319;-61
2024/02/07 12:03:14;;;;;;;7.63;3.10;;;9.90;99.90;;;;;;5050924;28;20253;-61
2024/02/07 12:05:41;;;;;;;10.27;3.40;;;10.00;99.90;;;;;;5032002;28;20260;-61
2024/02/07 12:08:10;;;;;;;9.37;4.63;;;;;;;;;;5030031;28;20765;-61
2024/02/07 12:10:37;;;;;;;7.07;4.57;;;;;;;;;;5032058;28;20259;-61
2024/02/07 12:13:04;;;;;;;7.13;3.47;;;;;;;;;;5029359;28;20292;-62
2024/02/07 12:15:32;;;;;;;5.23;3.63;;;;;;;;;;5050367;28;20223;-61
2024/02/07 12:17:59;;;;;;;5.37;3.90;;;;;;;;;;5051887;28;20291;-61
2024/02/07 12:20:29;;;;;;;3.73;3.43;;;9.70;99.90;;;;;;5051941;28;20703;-61
2024/02/07 12:22:59;;;;;;;4.50;3.70;;;;;;;;;;5050855;28;20212;-61
2024/02/07 12:25:27;;;;;;;4.60;3.33;;;;;;;;;;5051280;28;20315;-61
2024/02/07 12:27:55;;;;;;;10.27;3.87;;;;;;;;;;5052029;28;20675;-61
2024/02/07 12:30:22;;;;;;;4.40;4.00;;;9.50;99.90;;;;;;5051550;28;20204;-61
2024/02/07 12:32:49;;;;;;;5.73;3.27;;;9.50;99.90;;;;;;5051109;28;20265;-61
2024/02/07 12:35:18;;;;;;;5.30;3.23;;;9.50;99.90;;;;;;5050753;28;20270;-61
2024/02/07 12:37:45;;;;;;;5.27;3.27;;;9.60;99.90;;;;;;5051596;28;20275;-61
2024/02/07 12:40:13;;;;;;;4.57;3.17;;;9.60;99.90;;;;;;5051440;28;20711;-61
2024/02/07 12:42:43;;;;;;;12.67;5.23;;;9.60;99.90;;;;;;5050995;28;20289;-61
2024/02/07 12:45:12;;;;;;;9.37;4.30;;;9.60;99.90;;;;;;5051085;28;20220;-61
2024/02/07 12:47:39;;;;;;;3.60;3.10;;;9.70;99.90;;;;;;5051629;28;20637;-61
2024/02/07 12:50:08;;;;;;;2.87;2.67;;;9.70;99.90;;;;;;5051587;28;20202;-61
2024/02/07 12:52:35;;;;;;;6.27;4.33;;;9.70;99.90;;;;;;5050970;28;20207;-61
2024/02/07 12:55:02;;;;;;;7.47;3.40;;;9.70;99.90;;;;;;5028284;28;20380;-61
2024/02/07 12:57:30;;;;;;;2.53;2.33;;;9.70;99.90;;;;;;5031736;28;20216;-61
2024/02/07 13:00:09;;;;;;;6.73;2.67;;;9.70;99.90;;;;;;5032617;28;20232;-61
2024/02/07 13:02:36;;;;;;;5.93;3.07;;;9.70;99.90;;;;;;5032448;28;20296;-61
2024/02/07 13:05:04;;;;;;;5.77;2.93;;;9.60;99.90;;;;;;5039371;28;20627;-61
2024/02/07 13:07:31;;;;;;;5.13;3.80;;;9.60;99.90;;;;;;5012124;28;20276;-61
2024/02/07 13:09:58;;;;;;;3.63;2.70;;;9.60;99.90;;;;;;5012441;28;20236;-61
2024/02/07 13:12:26;;;;;;;4.83;4.37;;;;;;;;;;5011811;28;20685;-61
2024/02/07 13:14:53;;;;;;;6.03;3.27;;;;;;;;;;5040876;28;20220;-61
2024/02/07 13:17:26;;;;;;;3.83;2.57;;;;;;;;;;5032591;28;20208;-61
2024/02/07 13:19:53;;;;;;;5.13;2.33;;;;;;;;;;5031971;28;20295;-61
2024/02/07 13:22:20;;;;;;;5.23;2.10;;;;;;;;;;5031850;28;20203;-61
2024/02/07 13:24:47;;;;;;;2.50;1.77;;;10.50;99.90;;;;;;5044416;28;20231;-61
2024/02/07 13:27:14;;;;;;;2.10;1.90;;;9.90;99.90;;;;;;5051479;28;20212;-62
2024/02/07 13:29:44;;;;;;;4.30;2.50;;;9.80;99.90;;;;;;5051193;28;20204;-61
2024/02/07 13:32:12;;;;;;;6.87;2.97;;;9.90;99.90;;;;;;5050802;28;20299;-62
2024/02/07 13:34:42;;;;;;;5.67;2.73;;;9.90;99.90;;;;;;5050454;28;20220;-61
2024/02/07 13:37:09;;;;;;;2.83;2.57;;;9.80;99.90;;;;;;5051410;28;20202;-62
2024/02/07 13:39:37;;;;;;;2.80;2.03;;;9.90;99.90;;;;;;5051337;28;20235;-61
2024/02/07 13:42:04;;;;;;;2.77;2.30;;;9.90;99.90;;;;;;5051009;28;20319;-61
2024/02/07 13:44:32;;;;;;;1.97;1.83;;;9.90;99.90;;;;;;5049596;28;20278;-61
2024/02/07 13:47:01;;;;;;;6.03;2.47;;;9.90;99.90;;;;;;5053707;28;20587;-61
2024/02/07 13:49:28;;;;;;;4.63;2.10;;;9.90;99.90;;;;;;5054546;28;20251;-61
2024/02/07 13:51:57;;;;;;;6.70;2.33;;;9.90;99.90;;;;;;5053821;28;20684;-61
2024/02/07 13:54:24;;;;;;;3.23;2.27;;;;;;;;;;5053836;28;20231;-61
2024/02/07 13:56:51;;;;;;;2.53;2.30;;;9.90;99.90;;;;;;5055182;28;20208;-61
2024/02/07 13:59:18;;;;;;;2.80;1.80;;;9.90;99.90;;;;;;5054754;28;20208;-61
2024/02/07 14:01:45;;;;;;;8.17;2.33;;;10.00;99.90;;;;;;5053816;28;20270;-62
2024/02/07 14:04:12;;;;;;;3.93;2.00;;;10.00;99.90;;;;;;5053491;28;20225;-61
2024/02/07 14:06:39;;;;;;;4.50;1.97;;;10.00;99.90;;;;;;5054289;28;20262;-61
2024/02/07 14:09:08;;;;;;;2.23;1.50;;;10.00;99.90;;;;;;5054374;28;20738;-62
2024/02/07 14:11:40;;;;;;;7.10;2.13;;;10.00;99.90;;;;;;5053585;28;20295;-61
2024/02/07 14:14:07;;;;;;;4.63;2.17;;;10.00;99.90;;;;;;5051983;28;20271;-61